Time;durP1;ratioP1;P1;durP2;ratioP2;P2;SDS_P1;SDS_P2;PMS_P1;PMS_P2;Temp;Humidity;BMP_temperature;BMP_pressure;BME280_temperature;BME280_humidity;BME280_pressure;Samples;Min_cycle;Max_cycle;Signal;HPM_P1;HPM_P2
2021/11/04 00:00:04;;;;;;;20.05;11.18;;;11.20;88.70;;;;;;5024593;28;20489;-80
2021/11/04 00:02:38;;;;;;;20.33;11.70;;;11.20;88.60;;;;;;5026346;28;20030;-81
2021/11/04 00:05:05;;;;;;;37.05;12.10;;;11.20;88.60;;;;;;5030090;28;20042;-82
2021/11/04 00:07:31;;;;;;;35.47;14.00;;;11.30;88.60;;;;;;5029397;28;20110;-80
2021/11/04 00:09:57;;;;;;;32.00;11.20;;;11.20;88.50;;;;;;5028698;28;20033;-81
2021/11/04 00:12:23;;;;;;;29.27;12.80;;;11.30;88.60;;;;;;5029637;28;20034;-81
2021/11/04 00:14:48;;;;;;;75.55;12.70;;;11.30;88.50;;;;;;5029788;28;20032;-81
2021/11/04 00:17:17;;;;;;;31.55;12.15;;;11.30;88.50;;;;;;5027383;28;20039;-81
2021/11/04 00:19:43;;;;;;;60.83;12.20;;;11.30;88.50;;;;;;5022719;28;20032;-81
2021/11/04 00:22:10;;;;;;;34.13;11.20;;;11.30;88.50;;;;;;5016379;28;20037;-81
2021/11/04 00:24:36;;;;;;;30.20;9.48;;;11.30;88.40;;;;;;5016992;28;20030;-81
2021/11/04 00:27:02;;;;;;;20.23;9.68;;;11.30;88.40;;;;;;5027316;28;20474;-81
2021/11/04 00:29:28;;;;;;;18.60;10.38;;;11.30;88.40;;;;;;5032760;28;20030;-81
2021/11/04 00:31:55;;;;;;;16.48;8.10;;;11.20;88.30;;;;;;5035150;28;20112;-80
2021/11/04 00:34:21;;;;;;;19.55;10.88;;;11.30;88.30;;;;;;5031895;28;20053;-80
2021/11/04 00:36:48;;;;;;;18.70;10.00;;;11.30;88.30;;;;;;5035063;28;20057;-81
2021/11/04 00:39:14;;;;;;;16.10;8.57;;;11.30;88.30;;;;;;5020307;28;20042;-80
2021/11/04 00:41:40;;;;;;;19.17;9.98;;;11.20;88.10;;;;;;5029547;28;20064;-81
2021/11/04 00:44:09;;;;;;;19.75;11.60;;;11.30;88.20;;;;;;5033777;28;20477;-81
2021/11/04 00:46:35;;;;;;;18.80;10.57;;;11.20;88.10;;;;;;5021276;28;20500;-81
2021/11/04 00:49:02;;;;;;;49.50;11.77;;;11.30;88.10;;;;;;5021920;28;20042;-80
2021/11/04 00:51:28;;;;;;;60.45;12.45;;;11.20;88.00;;;;;;5029226;28;20447;-80
2021/11/04 00:53:54;;;;;;;36.70;12.30;;;11.30;88.00;;;;;;5023683;28;20025;-81
2021/11/04 00:56:19;;;;;;;35.42;12.30;;;11.30;88.00;;;;;;5032563;28;20124;-81
2021/11/04 00:58:49;;;;;;;34.90;12.20;;;11.30;88.00;;;;;;5024139;28;20013;-81
2021/11/04 01:01:22;;;;;;;27.27;11.32;;;11.30;88.00;;;;;;5030732;28;20370;-81
2021/11/04 01:03:49;;;;;;;24.52;9.77;;;11.30;88.00;;;;;;5027619;28;20504;-82
2021/11/04 01:06:15;;;;;;;20.83;11.85;;;11.30;87.90;;;;;;5031125;28;20045;-81
2021/11/04 01:08:41;;;;;;;30.83;11.55;;;11.30;87.90;;;;;;5030706;28;20473;-82
2021/11/04 01:11:07;;;;;;;21.77;11.73;;;11.30;87.90;;;;;;5032451;28;20029;-80
2021/11/04 01:13:34;;;;;;;17.65;9.43;;;11.30;87.90;;;;;;5029215;28;20041;-80
2021/11/04 01:16:00;;;;;;;19.92;10.15;;;11.30;87.70;;;;;;5022440;28;20362;-81
2021/11/04 01:18:27;;;;;;;18.98;9.68;;;11.30;87.60;;;;;;5033614;28;20033;-81
2021/11/04 01:20:53;;;;;;;13.93;7.82;;;11.20;87.50;;;;;;5033634;28;20029;-83
2021/11/04 01:23:19;;;;;;;15.90;8.52;;;11.20;87.50;;;;;;5034327;28;20404;-82
2021/11/04 01:25:45;;;;;;;17.42;9.13;;;11.10;87.50;;;;;;5032947;28;20030;-81
2021/11/04 01:28:11;;;;;;;17.02;9.45;;;11.10;87.60;;;;;;5034194;28;20064;-82
2021/11/04 01:30:38;;;;;;;16.67;8.63;;;11.00;87.70;;;;;;5029404;28;20060;-82
2021/11/04 01:33:04;;;;;;;23.75;9.00;;;11.00;87.80;;;;;;5031511;28;20112;-81
2021/11/04 01:35:33;;;;;;;33.25;8.55;;;11.00;87.90;;;;;;5021167;28;20088;-83
2021/11/04 01:37:59;;;;;;;51.78;11.95;;;10.90;88.00;;;;;;5032811;28;20041;-82
2021/11/04 01:40:25;;;;;;;30.58;7.95;;;10.80;88.00;;;;;;5032970;28;20035;-82
2021/11/04 01:42:51;;;;;;;61.38;12.15;;;10.80;88.10;;;;;;5031610;28;20408;-81
2021/11/04 01:45:17;;;;;;;38.40;12.05;;;10.80;88.20;;;;;;5032132;28;20108;-82
2021/11/04 01:47:45;;;;;;;32.33;11.23;;;10.80;88.30;;;;;;5032751;28;20457;-83
2021/11/04 01:50:15;;;;;;;19.98;10.70;;;10.80;88.40;;;;;;5023188;28;20506;-81
2021/11/04 01:52:42;;;;;;;23.05;11.73;;;10.90;88.50;;;;;;5029164;28;20029;-82
2021/11/04 01:55:11;;;;;;;19.73;9.88;;;10.90;88.40;;;;;;5033621;28;20396;-81
2021/11/04 01:57:37;;;;;;;19.00;10.73;;;10.90;88.30;;;;;;5030790;28;20022;-81
2021/11/04 02:00:04;;;;;;;21.00;10.82;;;11.00;88.40;;;;;;5023555;28;20447;-81
2021/11/04 02:02:40;;;;;;;16.90;10.30;;;11.00;88.30;;;;;;5021490;28;20041;-82
2021/11/04 02:05:07;;;;;;;18.33;10.63;;;11.00;88.20;;;;;;5023886;28;20390;-81
2021/11/04 02:07:58;;;;;;;18.98;10.27;;;11.00;88.10;;;;;;5020410;28;20099;-82
2021/11/04 02:11:10;;;;;;;19.55;9.98;;;11.00;88.10;;;;;;5030157;28;20500;-82
2021/11/04 02:13:45;;;;;;;18.67;10.20;;;11.10;88.10;;;;;;5007809;28;20034;-81
2021/11/04 02:16:14;;;;;;;24.00;11.35;;;11.00;87.90;;;;;;5010311;28;20061;-82
2021/11/04 02:18:40;;;;;;;20.33;11.68;;;11.10;88.00;;;;;;5021787;28;20501;-81
2021/11/04 02:21:24;;;;;;;19.70;12.05;;;11.10;88.00;;;;;;5026273;28;20021;-81
2021/11/04 02:24:27;;;;;;;33.00;10.95;;;11.10;88.20;;;;;;5027458;28;20112;-81
2021/11/04 02:26:53;;;;;;;27.90;11.43;;;11.10;88.00;;;;;;5025169;28;20497;-81
2021/11/04 02:29:20;;;;;;;20.55;12.23;;;11.10;87.90;;;;;;5022889;28;20033;-81
2021/11/04 02:31:48;;;;;;;17.23;10.02;;;11.10;88.00;;;;;;5023781;28;20037;-81
2021/11/04 02:34:14;;;;;;;18.77;10.48;;;11.10;88.10;;;;;;5035406;28;20033;-81
2021/11/04 02:36:44;;;;;;;16.85;10.15;;;11.10;88.00;;;;;;5034364;28;20539;-81
2021/11/04 02:39:11;;;;;;;20.77;9.93;;;11.10;88.00;;;;;;5030876;28;20123;-81
2021/11/04 02:41:36;;;;;;;16.33;9.80;;;11.10;87.90;;;;;;5031621;28;20133;-80
2021/11/04 02:44:08;;;;;;;19.17;10.43;;;11.10;87.90;;;;;;5024212;28;20520;-82
2021/11/04 02:46:33;;;;;;;23.70;10.65;;;11.10;87.90;;;;;;5026827;28;20046;-81
2021/11/04 02:48:59;;;;;;;27.77;11.30;;;11.10;87.90;;;;;;5031169;28;20104;-80
2021/11/04 02:51:25;;;;;;;17.95;11.00;;;11.10;87.90;;;;;;5031627;28;20040;-81
2021/11/04 02:53:51;;;;;;;28.00;10.32;;;11.10;87.80;;;;;;5018543;28;20076;-81
2021/11/04 02:56:16;;;;;;;23.02;11.05;;;11.10;87.70;;;;;;5017776;28;20033;-81
2021/11/04 02:58:42;;;;;;;17.35;10.23;;;11.10;87.70;;;;;;5032700;28;20535;-81
2021/11/04 03:01:08;;;;;;;21.63;10.95;;;11.10;87.70;;;;;;5031057;28;20021;-82
2021/11/04 03:03:34;;;;;;;23.33;10.50;;;11.10;87.70;;;;;;5031774;28;20577;-79
2021/11/04 03:06:00;;;;;;;20.73;10.73;;;11.10;87.70;;;;;;5030357;28;20046;-81
2021/11/04 03:08:26;;;;;;;17.95;10.38;;;11.10;87.70;;;;;;5030555;28;20033;-80
2021/11/04 03:10:55;;;;;;;23.33;11.18;;;11.10;87.70;;;;;;5030635;28;20511;-80
2021/11/04 03:13:20;;;;;;;19.45;12.13;;;11.10;87.80;;;;;;5013523;28;20036;-81
2021/11/04 03:15:56;;;;;;;17.55;9.88;;;11.10;87.70;;;;;;5025246;28;20116;-82
2021/11/04 03:18:24;;;;;;;18.92;9.63;;;11.10;87.70;;;;;;5019587;28;20388;-83
2021/11/04 03:20:52;;;;;;;18.30;10.30;;;11.10;87.70;;;;;;5031880;28;20049;-82
2021/11/04 03:23:17;;;;;;;25.30;10.82;;;11.10;87.70;;;;;;5028370;28;20030;-82
2021/11/04 03:25:46;;;;;;;26.05;10.73;;;11.10;87.70;;;;;;5031119;28;20032;-82
2021/11/04 03:28:12;;;;;;;81.85;13.35;;;11.10;87.70;;;;;;5031240;28;20120;-82
2021/11/04 03:30:40;;;;;;;51.03;11.02;;;11.10;87.70;;;;;;5030320;28;20022;-81
2021/11/04 03:33:08;;;;;;;64.22;11.93;;;11.10;87.70;;;;;;5031042;28;20413;-82
2021/11/04 03:35:36;;;;;;;59.63;12.38;;;11.10;87.80;;;;;;5013941;28;20470;-82
2021/11/04 03:38:06;;;;;;;42.33;10.93;;;11.10;87.70;;;;;;5021510;28;20492;-82
2021/11/04 03:40:32;;;;;;;45.30;11.90;;;11.10;87.70;;;;;;5029660;28;20029;-83
2021/11/04 03:42:58;;;;;;;47.83;11.15;;;11.10;87.70;;;;;;5030454;28;20044;-83
2021/11/04 03:45:24;;;;;;;14.68;8.93;;;11.10;87.70;;;;;;5029768;28;20053;-83
2021/11/04 03:47:50;;;;;;;20.90;9.10;;;11.10;87.70;;;;;;5030759;28;20037;-83
2021/11/04 03:50:18;;;;;;;16.80;8.55;;;11.10;87.70;;;;;;5028803;28;20029;-82
2021/11/04 03:52:45;;;;;;;14.32;8.68;;;11.10;87.70;;;;;;5025196;28;20037;-82
2021/11/04 03:55:13;;;;;;;14.52;8.57;;;11.10;87.60;;;;;;5023194;28;20060;-82
2021/11/04 03:57:44;;;;;;;16.50;9.20;;;11.10;87.50;;;;;;5023587;28;20029;-81
2021/11/04 04:00:12;;;;;;;15.85;8.77;;;11.00;87.40;;;;;;5030517;28;20037;-81
2021/11/04 04:02:38;;;;;;;15.32;8.43;;;11.10;87.50;;;;;;5028745;28;20389;-82
2021/11/04 04:05:05;;;;;;;16.60;9.93;;;11.00;87.40;;;;;;5029657;28;20397;-82
2021/11/04 04:07:31;;;;;;;15.73;8.30;;;11.10;87.40;;;;;;5029471;28;20516;-81
2021/11/04 04:09:58;;;;;;;21.90;9.93;;;11.00;87.50;;;;;;5024881;28;20112;-81
2021/11/04 04:12:23;;;;;;;14.80;8.77;;;11.00;87.50;;;;;;5018141;28;20030;-81
2021/11/04 04:14:50;;;;;;;15.18;8.32;;;11.00;87.40;;;;;;5027564;28;20021;-82
2021/11/04 04:17:21;;;;;;;13.15;8.23;;;11.00;87.50;;;;;;5020320;28;20040;-82
2021/11/04 04:19:50;;;;;;;13.18;8.00;;;11.00;87.50;;;;;;5025843;28;20033;-82
2021/11/04 04:22:16;;;;;;;30.02;10.68;;;11.00;87.60;;;;;;5028184;28;20123;-82
2021/11/04 04:24:42;;;;;;;24.58;10.27;;;11.00;87.50;;;;;;5026964;28;20069;-81
2021/11/04 04:27:07;;;;;;;17.52;8.38;;;11.00;87.50;;;;;;5025189;28;20046;-81
2021/11/04 04:29:33;;;;;;;22.33;9.15;;;11.00;87.50;;;;;;5020587;28;20026;-82
2021/11/04 04:31:59;;;;;;;16.42;9.05;;;11.00;87.50;;;;;;5022548;28;20030;-82
2021/11/04 04:34:25;;;;;;;16.83;9.43;;;11.00;87.50;;;;;;5024653;28;20462;-81
2021/11/04 04:36:51;;;;;;;17.25;8.98;;;11.00;87.50;;;;;;5018178;28;20034;-81
2021/11/04 04:39:17;;;;;;;15.48;9.60;;;11.00;87.50;;;;;;5017789;28;20039;-80
2021/11/04 04:41:43;;;;;;;15.48;9.05;;;11.00;87.40;;;;;;5019243;28;20034;-81
2021/11/04 04:44:09;;;;;;;24.85;9.80;;;10.90;87.40;;;;;;5021112;28;20033;-80
2021/11/04 04:46:35;;;;;;;18.55;10.20;;;11.00;87.40;;;;;;5026590;28;20469;-80
2021/11/04 04:49:00;;;;;;;28.23;10.00;;;11.00;87.50;;;;;;5028807;28;20037;-81
2021/11/04 04:51:26;;;;;;;29.80;11.95;;;11.00;87.50;;;;;;5025335;28;20088;-80
2021/11/04 04:53:52;;;;;;;27.35;11.15;;;10.90;87.50;;;;;;5025106;28;20033;-81
2021/11/04 04:56:17;;;;;;;31.90;9.88;;;11.00;87.50;;;;;;5029404;28;20018;-80
2021/11/04 04:58:43;;;;;;;37.85;8.40;;;11.00;87.50;;;;;;5030972;28;20061;-81
2021/11/04 05:01:09;;;;;;;13.88;7.43;;;11.00;87.50;;;;;;5017189;28;20029;-82
2021/11/04 05:03:34;;;;;;;14.00;7.63;;;11.00;87.50;;;;;;5013310;28;20053;-81
2021/11/04 05:06:00;;;;;;;23.00;8.00;;;10.90;87.40;;;;;;5026780;28;20033;-81
2021/11/04 05:08:26;;;;;;;15.05;8.75;;;10.90;87.40;;;;;;5032021;28;20045;-81
2021/11/04 05:10:58;;;;;;;14.35;8.48;;;10.90;87.50;;;;;;5023723;28;20026;-80
2021/11/04 05:13:23;;;;;;;17.85;8.00;;;10.90;87.60;;;;;;5027423;28;20053;-81
2021/11/04 05:15:49;;;;;;;19.88;8.48;;;10.90;87.40;;;;;;5015840;28;20151;-81
2021/11/04 05:18:15;;;;;;;18.50;8.27;;;10.90;87.30;;;;;;5030137;28;20033;-82
2021/11/04 05:20:40;;;;;;;27.33;9.77;;;10.90;87.30;;;;;;5025981;28;20091;-81
2021/11/04 05:23:06;;;;;;;48.00;9.85;;;10.90;87.20;;;;;;5027065;28;20025;-80
2021/11/04 05:25:32;;;;;;;61.58;9.38;;;10.90;87.20;;;;;;5020048;28;20484;-81
2021/11/04 05:27:58;;;;;;;118.43;9.63;;;10.90;87.20;;;;;;5032847;28;20503;-81
2021/11/04 05:30:23;;;;;;;84.93;9.25;;;10.90;87.20;;;;;;5021912;28;20492;-80
2021/11/04 05:32:49;;;;;;;199.73;11.35;;;10.90;87.10;;;;;;5021659;28;20022;-80
2021/11/04 05:35:17;;;;;;;189.52;10.25;;;10.90;87.10;;;;;;5032167;28;20037;-74
2021/11/04 05:37:44;;;;;;;166.05;8.45;;;10.90;87.00;;;;;;5028415;28;20116;-84
2021/11/04 05:40:10;;;;;;;181.50;9.55;;;10.90;87.00;;;;;;5031387;28;20042;-72
2021/11/04 05:42:36;;;;;;;261.70;12.32;;;10.90;87.00;;;;;;5029727;28;20025;-75
2021/11/04 05:45:02;;;;;;;165.25;8.93;;;10.80;86.90;;;;;;5027254;28;20091;-79
2021/11/04 05:47:27;;;;;;;224.77;9.40;;;10.90;87.00;;;;;;5021512;28;20042;-78
2021/11/04 05:49:53;;;;;;;240.93;9.13;;;10.80;86.90;;;;;;5032058;28;20032;-77
2021/11/04 05:52:19;;;;;;;188.23;8.43;;;10.90;86.90;;;;;;5030220;28;20055;-78
2021/11/04 05:54:44;;;;;;;150.07;7.78;;;10.80;86.90;;;;;;5025281;28;20083;-78
2021/11/04 05:57:10;;;;;;;196.40;8.23;;;10.80;86.90;;;;;;5020171;28;20915;-78
2021/11/04 05:59:36;;;;;;;165.63;7.45;;;10.80;86.90;;;;;;5027763;28;20025;-79
2021/11/04 06:02:01;;;;;;;54.08;5.07;;;10.80;86.80;;;;;;5028516;28;20493;-77
2021/11/04 06:04:32;;;;;;;89.97;6.00;;;10.90;86.80;;;;;;5021183;28;20060;-79
2021/11/04 06:06:58;;;;;;;145.02;7.03;;;10.80;86.70;;;;;;5028860;28;20111;-77
2021/11/04 06:09:27;;;;;;;87.93;5.72;;;10.80;86.70;;;;;;5021735;28;20022;-79
2021/11/04 06:11:53;;;;;;;41.85;4.35;;;10.80;86.50;;;;;;5032616;28;20434;-81
2021/11/04 06:14:18;;;;;;;203.48;9.10;;;10.80;86.50;;;;;;5020220;28;20049;-83
2021/11/04 06:16:44;;;;;;;155.25;8.60;;;10.80;86.50;;;;;;5029168;28;20029;-80
2021/11/04 06:19:09;;;;;;;142.80;7.00;;;10.80;86.50;;;;;;5022046;28;20033;-77
2021/11/04 06:21:35;;;;;;;31.08;5.20;;;10.80;86.50;;;;;;5026768;28;20033;-81
2021/11/04 06:24:01;;;;;;;48.90;4.75;;;10.80;86.50;;;;;;5026280;28;20025;-76
2021/11/04 06:26:26;;;;;;;67.05;5.03;;;10.70;86.50;;;;;;5026525;28;20033;-78
2021/11/04 06:28:52;;;;;;;53.45;5.82;;;10.70;86.50;;;;;;5027744;28;20037;-77
2021/11/04 06:31:18;;;;;;;63.03;6.38;;;10.70;86.40;;;;;;5029172;28;20017;-80
2021/11/04 06:33:43;;;;;;;48.22;5.53;;;10.70;86.40;;;;;;5030646;28;20036;-78
2021/11/04 06:36:09;;;;;;;58.55;6.57;;;10.70;86.40;;;;;;5031454;28;20203;-81
2021/11/04 06:38:35;;;;;;;86.13;6.47;;;10.70;86.40;;;;;;5024290;28;20521;-76
2021/11/04 06:41:01;;;;;;;79.35;7.07;;;10.70;86.40;;;;;;5026393;28;20022;-80
2021/11/04 06:43:27;;;;;;;46.72;5.70;;;10.70;86.30;;;;;;5026548;28;20385;-72
2021/11/04 06:45:53;;;;;;;36.67;5.82;;;10.70;86.30;;;;;;5019262;28;20026;-70
2021/11/04 06:48:25;;;;;;;49.97;5.90;;;10.60;86.10;;;;;;5030547;28;20040;-79
2021/11/04 06:50:55;;;;;;;77.43;6.63;;;10.60;86.00;;;;;;5025459;28;20473;-77
2021/11/04 06:53:24;;;;;;;42.50;6.05;;;10.60;86.10;;;;;;5022679;28;20037;-76
2021/11/04 06:55:53;;;;;;;21.92;4.70;;;10.60;85.80;;;;;;5029495;28;20025;-78
2021/11/04 06:58:24;;;;;;;24.55;4.43;;;10.60;85.80;;;;;;5032298;28;20061;-73
2021/11/04 07:00:53;;;;;;;12.50;4.10;;;10.60;86.00;;;;;;5028890;28;20037;-76
2021/11/04 07:03:25;;;;;;;24.92;5.18;;;10.60;86.10;;;;;;5024844;28;20038;-77
2021/11/04 07:05:57;;;;;;;74.27;6.83;;;10.60;86.00;;;;;;5025710;28;20037;-78
2021/11/04 07:08:23;;;;;;;54.35;7.90;;;10.50;85.90;;;;;;5026858;28;20064;-78
2021/11/04 07:10:57;;;;;;;30.17;6.82;;;10.50;85.80;;;;;;5020526;28;20030;-77
2021/11/04 07:13:24;;;;;;;31.00;7.47;;;10.50;85.70;;;;;;5028656;28;20437;-72
2021/11/04 07:15:50;;;;;;;12.77;7.00;;;10.50;85.60;;;;;;5031209;28;20049;-72
2021/11/04 07:18:19;;;;;;;27.55;7.10;;;10.50;85.50;;;;;;5019894;28;20109;-77
2021/11/04 07:20:50;;;;;;;44.40;10.65;;;10.40;85.70;;;;;;5030837;28;20022;-78
2021/11/04 07:23:21;;;;;;;35.85;7.93;;;10.40;85.60;;;;;;5028366;28;20060;-78
2021/11/04 07:25:49;;;;;;;16.92;8.13;;;10.40;86.10;;;;;;5013847;28;20125;-78
2021/11/04 07:28:17;;;;;;;30.55;8.80;;;10.40;85.40;;;;;;5023569;28;20044;-77
2021/11/04 07:30:43;;;;;;;16.55;8.57;;;10.40;85.40;;;;;;5030104;28;20030;-80
2021/11/04 07:33:09;;;;;;;29.27;8.60;;;10.40;85.40;;;;;;5018606;28;20036;-81
2021/11/04 07:35:40;;;;;;;26.83;9.77;;;10.40;85.30;;;;;;5028649;28;20386;-80
2021/11/04 07:38:08;;;;;;;24.85;8.48;;;10.40;85.10;;;;;;5023872;28;20026;-80
2021/11/04 07:40:35;;;;;;;22.65;9.25;;;10.40;85.00;;;;;;5030885;28;20037;-80
2021/11/04 07:43:00;;;;;;;16.95;8.82;;;10.40;84.90;;;;;;5025062;28;20030;-79
2021/11/04 07:45:28;;;;;;;45.42;9.35;;;10.40;84.80;;;;;;5015099;28;20049;-80
2021/11/04 07:47:54;;;;;;;41.13;9.55;;;10.40;84.70;;;;;;5029510;28;20037;-79
2021/11/04 07:50:29;;;;;;;100.95;11.32;;;10.40;84.60;;;;;;5026485;28;20497;-80
2021/11/04 07:52:56;;;;;;;171.82;11.52;;;10.40;84.70;;;;;;5015819;28;20037;-80
2021/11/04 07:55:23;;;;;;;151.95;11.15;;;10.40;84.60;;;;;;5023800;28;20499;-80
2021/11/04 07:57:49;;;;;;;113.63;10.27;;;10.30;84.50;;;;;;5029265;28;20389;-80
2021/11/04 08:00:17;;;;;;;100.45;10.43;;;10.30;84.50;;;;;;5031581;28;20034;-80
2021/11/04 08:02:43;;;;;;;199.15;11.05;;;10.30;84.70;;;;;;5027999;28;20034;-80
2021/11/04 08:05:15;;;;;;;283.30;11.05;;;10.30;84.70;;;;;;5027400;28;20129;-80
2021/11/04 08:07:42;;;;;;;310.88;13.75;;;10.40;84.70;;;;;;5028848;28;20099;-80
2021/11/04 08:10:10;;;;;;;261.67;10.18;;;10.30;84.60;;;;;;5020749;28;20033;-80
2021/11/04 08:12:36;;;;;;;158.52;8.70;;;10.30;84.60;;;;;;5029905;28;20485;-80
2021/11/04 08:15:04;;;;;;;108.47;6.65;;;10.30;84.70;;;;;;5018474;28;20032;-80
2021/11/04 08:17:30;;;;;;;172.52;9.77;;;10.30;84.80;;;;;;5025411;28;20388;-80
2021/11/04 08:19:55;;;;;;;186.82;10.25;;;10.30;84.80;;;;;;5027998;28;20033;-80
2021/11/04 08:22:21;;;;;;;295.00;10.98;;;10.30;84.90;;;;;;5028532;28;20025;-79
2021/11/04 08:24:47;;;;;;;191.60;7.75;;;10.30;84.90;;;;;;5030123;28;20519;-80
2021/11/04 08:27:14;;;;;;;178.85;9.80;;;10.20;84.90;;;;;;5029460;28;20133;-81
2021/11/04 08:29:40;;;;;;;209.75;8.82;;;10.20;84.90;;;;;;5020053;28;20508;-80
2021/11/04 08:32:08;;;;;;;100.88;7.10;;;10.20;84.90;;;;;;5014633;28;20030;-80
2021/11/04 08:34:34;;;;;;;152.75;8.52;;;10.20;84.90;;;;;;5031487;28;20033;-81
2021/11/04 08:37:00;;;;;;;161.85;7.78;;;10.20;85.00;;;;;;5028032;28;20079;-81
2021/11/04 08:39:26;;;;;;;254.10;8.63;;;10.20;85.00;;;;;;5024115;28;20097;-81
2021/11/04 08:41:51;;;;;;;196.88;9.63;;;10.20;85.10;;;;;;5035903;28;20038;-80
2021/11/04 08:44:17;;;;;;;77.10;5.38;;;10.20;85.10;;;;;;5022430;28;20037;-81
2021/11/04 08:46:43;;;;;;;90.65;7.53;;;10.20;85.10;;;;;;5025395;28;20041;-81
2021/11/04 08:49:09;;;;;;;129.95;7.03;;;10.30;85.20;;;;;;5030586;28;20029;-81
2021/11/04 08:51:34;;;;;;;106.47;7.57;;;10.20;85.30;;;;;;5019202;28;20040;-80
2021/11/04 08:54:03;;;;;;;163.98;7.22;;;10.20;85.40;;;;;;5032495;28;20017;-81
2021/11/04 08:56:29;;;;;;;127.20;6.57;;;10.20;85.30;;;;;;5026410;28;20148;-81
2021/11/04 08:58:54;;;;;;;125.40;6.10;;;10.20;85.20;;;;;;5028869;28;20108;-80
2021/11/04 09:01:20;;;;;;;73.43;5.35;;;10.20;85.20;;;;;;5026171;28;20477;-80
2021/11/04 09:03:47;;;;;;;72.78;6.18;;;10.20;85.20;;;;;;5025134;28;20111;-80
2021/11/04 09:06:12;;;;;;;36.38;4.93;;;10.20;85.20;;;;;;5019496;28;20057;-81
2021/11/04 09:08:38;;;;;;;38.42;5.60;;;10.20;85.40;;;;;;5033651;28;20060;-80
2021/11/04 09:11:04;;;;;;;53.45;6.40;;;10.20;85.60;;;;;;5029975;28;20060;-79
2021/11/04 09:13:29;;;;;;;164.00;8.70;;;10.20;85.70;;;;;;5026070;28;20680;-80
2021/11/04 09:15:55;;;;;;;95.97;8.13;;;10.20;85.90;;;;;;5018080;28;20065;-80
2021/11/04 09:18:21;;;;;;;46.83;6.95;;;10.20;86.10;;;;;;5030772;28;20563;-80
2021/11/04 09:20:47;;;;;;;65.88;6.30;;;10.30;86.10;;;;;;5032111;28;20030;-80
2021/11/04 09:23:13;;;;;;;28.92;6.72;;;10.30;86.10;;;;;;5032939;28;20034;-80
2021/11/04 09:25:39;;;;;;;37.65;7.22;;;10.30;86.10;;;;;;5027711;28;20042;-80
2021/11/04 09:28:05;;;;;;;35.20;6.40;;;10.40;86.30;;;;;;5025787;28;20037;-80
2021/11/04 09:30:31;;;;;;;138.75;9.07;;;10.30;86.20;;;;;;5026664;28;20025;-78
2021/11/04 09:32:57;;;;;;;55.85;7.30;;;10.40;86.40;;;;;;5030075;28;20049;-79
2021/11/04 09:35:24;;;;;;;67.80;7.10;;;10.40;86.50;;;;;;5029822;28;20087;-79
2021/11/04 09:37:52;;;;;;;113.28;9.10;;;10.40;86.60;;;;;;5024088;28;20105;-80
2021/11/04 09:40:18;;;;;;;53.42;6.50;;;10.50;86.80;;;;;;5029731;28;20062;-78
2021/11/04 09:42:45;;;;;;;58.55;8.38;;;10.40;86.70;;;;;;5031365;28;20444;-79
2021/11/04 09:45:12;;;;;;;64.38;6.97;;;10.50;86.80;;;;;;5026766;28;20037;-79
2021/11/04 09:47:37;;;;;;;37.83;7.85;;;10.50;86.90;;;;;;5030283;28;20033;-79
2021/11/04 09:50:09;;;;;;;85.50;8.88;;;10.50;86.90;;;;;;5025482;28;20443;-79
2021/11/04 09:52:36;;;;;;;29.35;6.75;;;10.50;87.00;;;;;;5029338;28;20065;-78
2021/11/04 09:55:18;;;;;;;72.47;7.72;;;10.50;87.10;;;;;;5029586;28;20067;-79
2021/11/04 09:57:45;;;;;;;32.00;7.03;;;10.60;87.30;;;;;;5028275;28;20469;-78
2021/11/04 10:00:12;;;;;;;22.73;7.07;;;10.60;87.40;;;;;;5031251;28;20041;-75
2021/11/04 10:02:39;;;;;;;12.05;7.18;;;10.60;87.40;;;;;;5028702;28;20436;-79
2021/11/04 10:05:06;;;;;;;23.25;7.45;;;10.70;87.70;;;;;;5021463;28;20045;-79
2021/11/04 10:07:43;;;;;;;16.38;7.75;;;10.70;87.80;;;;;;5025321;28;20458;-78
2021/11/04 10:10:09;;;;;;;30.60;7.55;;;10.70;87.90;;;;;;5025340;28;20029;-78
2021/11/04 10:12:36;;;;;;;24.13;7.30;;;10.80;88.00;;;;;;5017679;28;20108;-78
2021/11/04 10:15:14;;;;;;;12.02;6.82;;;10.80;88.00;;;;;;5013801;28;20030;-78
2021/11/04 10:17:40;;;;;;;13.77;7.75;;;10.80;88.10;;;;;;5024083;28;20033;-78
2021/11/04 10:20:27;;;;;;;13.88;7.85;;;10.90;88.10;;;;;;5026617;28;20483;-79
2021/11/04 10:23:22;;;;;;;14.88;8.48;;;10.90;88.10;;;;;;5029155;28;20087;-79
2021/11/04 10:25:48;;;;;;;17.65;7.53;;;11.00;88.30;;;;;;5013736;28;20488;-78
2021/11/04 10:28:28;;;;;;;16.05;7.97;;;10.90;88.20;;;;;;5030599;28;20045;-78
2021/11/04 10:30:59;;;;;;;15.25;7.70;;;11.00;88.40;;;;;;5021024;28;20033;-78
2021/11/04 10:33:30;;;;;;;13.80;7.47;;;11.00;88.60;;;;;;5031610;28;20035;-79
2021/11/04 10:36:18;;;;;;;12.63;7.68;;;11.00;89.00;;;;;;5032497;28;20485;-78
2021/11/04 10:38:48;;;;;;;14.70;7.60;;;11.10;89.00;;;;;;5028913;28;20030;-78
2021/11/04 10:41:20;;;;;;;14.52;7.55;;;11.10;89.10;;;;;;5039327;28;20037;-80
2021/11/04 10:44:06;;;;;;;14.10;6.90;;;11.20;89.20;;;;;;5033754;28;20030;-83
2021/11/04 10:46:41;;;;;;;12.70;7.05;;;11.20;89.30;;;;;;5025597;28;20030;-85
2021/11/04 10:49:10;;;;;;;32.22;7.00;;;11.30;89.30;;;;;;5033610;28;20041;-85
2021/11/04 10:51:36;;;;;;;10.45;6.25;;;11.40;89.30;;;;;;5040277;28;20029;-86
2021/11/04 10:54:07;;;;;;;13.95;7.32;;;11.40;89.20;;;;;;5020677;28;20084;-85
2021/11/04 10:56:38;;;;;;;9.98;6.00;;;11.40;89.20;;;;;;5026744;28;20033;-80
2021/11/04 10:59:08;;;;;;;12.85;6.97;;;11.40;89.20;;;;;;5027167;28;20373;-80
2021/11/04 11:01:43;;;;;;;12.55;7.07;;;11.40;89.20;;;;;;5031772;28;20377;-80
2021/11/04 11:04:18;;;;;;;12.02;6.50;;;11.50;89.40;;;;;;5031018;28;20054;-79
2021/11/04 11:06:52;;;;;;;11.32;6.65;;;11.50;89.20;;;;;;5023165;28;20076;-79
2021/11/04 11:09:20;;;;;;;11.45;6.18;;;11.50;89.30;;;;;;5032106;28;20036;-82
2021/11/04 11:11:48;;;;;;;9.68;5.43;;;11.50;89.10;;;;;;5027182;28;20043;-81
2021/11/04 11:14:16;;;;;;;10.80;6.45;;;11.70;89.10;;;;;;5024574;28;20086;-81
2021/11/04 11:16:43;;;;;;;10.85;5.95;;;11.70;89.20;;;;;;5030833;28;20021;-80
2021/11/04 11:19:10;;;;;;;10.48;5.72;;;11.70;88.90;;;;;;5031351;28;20089;-81
2021/11/04 11:21:43;;;;;;;9.88;5.63;;;11.80;89.00;;;;;;5033617;28;20082;-80
2021/11/04 11:24:12;;;;;;;12.23;5.85;;;11.80;88.80;;;;;;5033884;28;20041;-81
2021/11/04 11:26:39;;;;;;;10.07;5.32;;;11.80;88.70;;;;;;5032712;28;20040;-82
2021/11/04 11:29:05;;;;;;;8.90;5.43;;;11.90;88.60;;;;;;5028653;28;20034;-81
2021/11/04 11:31:31;;;;;;;9.73;4.80;;;11.90;88.30;;;;;;5028122;28;20140;-81
2021/11/04 11:34:06;;;;;;;9.10;5.30;;;11.90;88.10;;;;;;5019746;28;20076;-82
2021/11/04 11:36:32;;;;;;;11.45;5.60;;;12.00;87.90;;;;;;5024328;28;20373;-81
2021/11/04 11:38:59;;;;;;;10.00;5.75;;;12.10;88.00;;;;;;5018688;28;20025;-80
2021/11/04 11:41:30;;;;;;;10.95;6.07;;;12.10;87.90;;;;;;5029503;28;20048;-81
2021/11/04 11:43:59;;;;;;;10.02;5.97;;;12.20;88.10;;;;;;5029117;28;20374;-81
2021/11/04 11:46:25;;;;;;;10.93;5.38;;;12.20;87.90;;;;;;5033400;28;20033;-85
2021/11/04 11:49:10;;;;;;;11.32;5.65;;;12.20;87.80;;;;;;5050467;28;20033;-83
2021/11/04 11:51:49;;;;;;;8.63;4.97;;;12.30;87.70;;;;;;5029812;28;20033;-81
2021/11/04 11:54:14;;;;;;;10.57;5.25;;;12.40;87.70;;;;;;5030989;28;20076;-81
2021/11/04 11:57:13;;;;;;;8.52;5.10;;;12.40;87.60;;;;;;5030053;28;20030;-80
2021/11/04 11:59:52;;;;;;;8.20;4.90;;;12.40;87.40;;;;;;5028679;28;20076;-82
2021/11/04 12:02:54;;;;;;;8.95;4.68;;;12.50;87.30;;;;;;5024807;28;20041;-80
2021/11/04 12:05:20;;;;;;;9.45;4.95;;;12.50;87.20;;;;;;5022665;28;20824;-79
2021/11/04 12:07:47;;;;;;;10.05;4.45;;;12.50;87.20;;;;;;5029492;28;20445;-79
2021/11/04 12:10:31;;;;;;;8.93;4.45;;;12.60;87.40;;;;;;5023331;28;20473;-79
2021/11/04 12:13:00;;;;;;;7.47;4.53;;;12.60;87.30;;;;;;5028479;28;20025;-80
2021/11/04 12:15:26;;;;;;;9.65;5.60;;;12.60;87.00;;;;;;5032215;28;20377;-80
2021/11/04 12:18:15;;;;;;;9.80;4.43;;;12.70;86.70;;;;;;5030346;28;20530;-74
2021/11/04 12:20:58;;;;;;;7.70;4.28;;;12.70;86.70;;;;;;5028306;28;20052;-82
2021/11/04 12:23:36;;;;;;;9.18;4.32;;;12.80;86.70;;;;;;5032930;28;20051;-82
2021/11/04 12:26:03;;;;;;;7.22;3.72;;;12.90;86.70;;;;;;5034021;28;20033;-82
2021/11/04 12:28:49;;;;;;;6.50;3.67;;;12.90;86.10;;;;;;5032020;28;20045;-81
2021/11/04 12:31:21;;;;;;;8.43;4.90;;;13.00;86.00;;;;;;5024518;28;20057;-82
2021/11/04 12:33:47;;;;;;;10.02;4.80;;;13.00;86.00;;;;;;5029059;28;20033;-81
2021/11/04 12:36:29;;;;;;;12.68;4.93;;;13.10;85.90;;;;;;5028742;28;20038;-82
2021/11/04 12:38:55;;;;;;;8.57;4.55;;;13.10;85.50;;;;;;5022739;28;20095;-82